Time;durP1;ratioP1;P1;durP2;ratioP2;P2;SDS_P1;SDS_P2;PMS_P1;PMS_P2;Temp;Humidity;BMP_temperature;BMP_pressure;BME280_temperature;BME280_humidity;BME280_pressure;Samples;Min_cycle;Max_cycle;Signal;HPM_P1;HPM_P2
2024/04/18 00:01:00;;;;;;;10.40;7.63;;;;;;;7.97;63.13;98359.66;5408032;26;20007;-64
2024/04/18 00:03:27;;;;;;;12.10;8.43;;;;;;;8.02;63.17;98364.88;5393265;26;20447;-65
2024/04/18 00:05:54;;;;;;;10.30;8.45;;;;;;;8.06;63.21;98363.09;5449241;26;20008;-64
2024/04/18 00:08:21;;;;;;;12.32;7.95;;;;;;;8.03;62.88;98366.47;5416763;26;20007;-64
2024/04/18 00:10:51;;;;;;;11.65;8.43;;;;;;;7.99;63.06;98360.09;5415763;26;20011;-64
2024/04/18 00:13:35;;;;;;;9.93;8.35;;;;;;;8.00;63.33;98365.22;5417491;26;20072;-64
2024/04/18 00:16:02;;;;;;;13.32;9.85;;;;;;;8.05;63.48;98359.56;5415923;26;20072;-64
2024/04/18 00:18:32;;;;;;;11.82;9.77;;;;;;;8.04;63.27;98366.13;5416743;26;20010;-64
2024/04/18 00:21:19;;;;;;;12.20;7.97;;;;;;;8.03;63.32;98366.47;5413829;26;20072;-65
2024/04/18 00:23:55;;;;;;;9.95;8.60;;;;;;;7.99;63.37;98365.53;5415698;26;20413;-64
2024/04/18 00:26:40;;;;;;;10.85;8.60;;;;;;;8.01;63.49;98361.38;5416235;26;20010;-64
2024/04/18 00:29:07;;;;;;;13.63;9.43;;;;;;;8.03;63.43;98358.31;5413593;26;20084;-64
2024/04/18 00:31:34;;;;;;;10.73;8.30;;;;;;;8.01;63.47;98364.09;5413504;26;20003;-64
2024/04/18 00:34:01;;;;;;;9.85;7.72;;;;;;;7.95;63.37;98356.47;5427149;26;20466;-64
2024/04/18 00:36:27;;;;;;;10.48;8.68;;;;;;;7.90;63.71;98362.91;5414392;26;20003;-64
2024/04/18 00:38:54;;;;;;;8.55;7.63;;;;;;;7.90;63.87;98363.72;5415181;26;20463;-64
2024/04/18 00:41:21;;;;;;;10.27;8.40;;;;;;;7.90;63.66;98355.56;5415101;26;20003;-64
2024/04/18 00:43:57;;;;;;;10.70;7.25;;;;;;;7.90;63.54;98362.91;5415332;26;20460;-64
2024/04/18 00:46:30;;;;;;;10.15;8.50;;;;;;;7.90;63.55;98360.19;5415129;26;20474;-63
2024/04/18 00:48:57;;;;;;;11.13;7.93;;;;;;;7.92;63.77;98363.38;5414877;26;20028;-63
2024/04/18 00:51:24;;;;;;;9.40;8.32;;;;;;;7.86;63.34;98360.06;5414675;26;20003;-64
2024/04/18 00:53:52;;;;;;;13.05;9.20;;;;;;;7.82;63.64;98364.59;5415170;26;20007;-64
2024/04/18 00:56:25;;;;;;;14.63;10.27;;;;;;;7.87;63.65;98360.88;5415077;26;20014;-63
2024/04/18 00:59:15;;;;;;;12.65;9.23;;;;;;;7.93;63.49;98364.16;5414410;26;20008;-64
2024/04/18 01:01:47;;;;;;;12.52;9.73;;;;;;;7.94;63.74;98357.59;5414768;26;20000;-64
2024/04/18 01:04:34;;;;;;;11.93;9.40;;;;;;;7.87;63.61;98356.22;5426764;26;20518;-64
2024/04/18 01:07:10;;;;;;;13.25;9.75;;;;;;;7.92;63.93;98362.56;5427783;26;20081;-64
2024/04/18 01:09:45;;;;;;;10.48;8.68;;;;;;;7.89;63.56;98364.84;5442865;26;20011;-64
2024/04/18 01:12:12;;;;;;;12.48;8.35;;;;;;;7.81;63.81;98363.00;5414345;26;20006;-64
2024/04/18 01:14:43;;;;;;;10.80;8.98;;;;;;;7.78;63.72;98360.16;5414401;26;20015;-64
2024/04/18 01:17:10;;;;;;;10.93;7.88;;;;;;;7.78;64.17;98363.66;5414406;26;20347;-64
2024/04/18 01:19:38;;;;;;;7.07;6.38;;;;;;;7.76;63.93;98374.06;5442652;26;20007;-64
2024/04/18 01:22:05;;;;;;;7.75;6.95;;;;;;;7.72;64.02;98375.84;5442657;26;20000;-64
2024/04/18 01:24:32;;;;;;;8.15;6.22;;;;;;;7.72;64.32;98370.41;5414411;26;20514;-64
2024/04/18 01:26:59;;;;;;;7.60;6.30;;;;;;;7.77;64.02;98372.91;5414285;26;20028;-63
2024/04/18 01:29:41;;;;;;;5.30;4.68;;;;;;;7.71;63.92;98379.69;5414432;26;20004;-63
2024/04/18 01:32:29;;;;;;;4.45;3.95;;;;;;;7.66;63.91;98379.09;5414248;26;20011;-63
2024/04/18 01:34:57;;;;;;;6.05;4.70;;;;;;;7.60;63.77;98382.00;5454411;26;19999;-63
2024/04/18 01:37:43;;;;;;;5.07;3.65;;;;;;;7.65;64.10;98382.94;5414320;26;20361;-64
2024/04/18 01:40:12;;;;;;;3.83;3.53;;;;;;;7.65;63.75;98383.75;5413941;26;20004;-64
2024/04/18 01:42:39;;;;;;;4.72;4.10;;;;;;;7.64;63.94;98382.16;5414106;26;19999;-63
2024/04/18 01:45:25;;;;;;;4.45;3.83;;;;;;;7.64;64.06;98384.88;5414307;26;20003;-63
2024/04/18 01:48:10;;;;;;;4.35;3.65;;;;;;;7.63;64.06;98377.06;5415692;26;20014;-63
2024/04/18 01:50:56;;;;;;;4.60;3.58;;;;;;;7.69;63.94;98387.38;5416045;26;20007;-63
2024/04/18 01:53:41;;;;;;;4.00;3.58;;;;;;;7.74;64.07;98383.66;5417739;26;20365;-63
2024/04/18 01:56:17;;;;;;;4.07;3.28;;;;;;;7.72;64.13;98386.69;5417935;26;20037;-63
2024/04/18 01:58:44;;;;;;;3.10;2.80;;;;;;;7.73;64.01;98376.63;5417622;26;20011;-63
2024/04/18 02:01:11;;;;;;;4.20;2.70;;;;;;;7.70;63.67;98388.97;5417361;26;20027;-63
2024/04/18 02:03:38;;;;;;;4.35;3.20;;;;;;;7.68;63.95;98387.72;5426631;26;19999;-63
2024/04/18 02:06:11;;;;;;;2.85;2.03;;;;;;;7.70;63.95;98386.25;5418095;26;20007;-63
2024/04/18 02:08:47;;;;;;;3.10;2.75;;;;;;;7.70;63.91;98388.97;5417539;26;20003;-63
2024/04/18 02:11:39;;;;;;;3.03;2.83;;;;;;;7.62;64.26;98389.81;5417220;26;20014;-64
2024/04/18 02:14:09;;;;;;;3.92;2.70;;;;;;;7.62;64.05;98389.81;5417458;26;20009;-63
2024/04/18 02:16:36;;;;;;;2.95;2.53;;;;;;;7.68;64.32;98390.41;5417243;26;20321;-64
2024/04/18 02:19:21;;;;;;;2.83;2.33;;;;;;;7.60;64.21;98390.13;5417283;26;20000;-63
2024/04/18 02:22:17;;;;;;;2.90;2.35;;;;;;;7.55;64.04;98392.28;5417325;26;20072;-63
2024/04/18 02:25:06;;;;;;;2.15;2.03;;;;;;;7.47;64.11;98393.16;5417499;26;20732;-63
2024/04/18 02:27:33;;;;;;;3.50;2.53;;;;;;;7.41;64.06;98399.88;5417409;26;20003;-63
2024/04/18 02:30:19;;;;;;;2.20;2.10;;;;;;;7.35;64.67;98396.56;5416997;26;20046;-64
2024/04/18 02:33:08;;;;;;;2.80;2.60;;;;;;;7.32;64.40;98396.44;5418887;26;20028;-63
2024/04/18 02:35:43;;;;;;;2.45;2.25;;;;;;;7.36;64.61;98389.22;5425515;26;20015;-63
2024/04/18 02:38:30;;;;;;;2.60;2.40;;;;;;;7.40;64.58;98398.28;5381792;26;20000;-63
2024/04/18 02:41:07;;;;;;;2.70;2.50;;;;;;;7.42;64.37;98396.81;5381230;26;20018;-63
2024/04/18 02:43:53;;;;;;;2.63;2.42;;;;;;;7.36;64.46;98400.88;5381869;26;20015;-63
2024/04/18 02:46:21;;;;;;;3.90;2.70;;;;;;;7.34;64.29;98410.47;5381628;26;20011;-63
2024/04/18 02:49:07;;;;;;;3.00;2.65;;;;;;;7.31;64.17;98411.13;5381416;26;20538;-63
2024/04/18 02:51:53;;;;;;;2.67;2.47;;;;;;;7.22;64.48;98411.97;5381523;26;20012;-63
2024/04/18 02:54:38;;;;;;;3.00;2.75;;;;;;;7.22;64.75;98405.75;5381258;26;20510;-64
2024/04/18 02:57:05;;;;;;;2.83;2.63;;;;;;;7.19;64.54;98418.03;5439160;26;20032;-64
2024/04/18 02:59:32;;;;;;;6.78;2.85;;;;;;;7.11;64.71;98413.47;5380809;26;20118;-63
2024/04/18 03:02:19;;;;;;;3.22;2.80;;;;;;;7.07;64.90;98414.47;5380873;26;20429;-64
2024/04/18 03:04:45;;;;;;;2.70;2.50;;;;;;;7.09;65.01;98417.63;5477481;26;20035;-67
2024/04/18 03:07:12;;;;;;;2.30;2.10;;;;;;;7.11;65.37;98424.31;5415050;26;20352;-63
2024/04/18 03:09:45;;;;;;;3.10;2.53;;;;;;;7.15;64.69;98421.75;5416794;26;20007;-64
2024/04/18 03:12:25;;;;;;;2.67;2.47;;;;;;;7.13;64.77;98413.94;5415201;26;20032;-63
2024/04/18 03:15:09;;;;;;;3.67;2.72;;;;;;;7.09;65.08;98423.06;5415755;26;20014;-63
2024/04/18 03:18:01;;;;;;;2.80;2.60;;;;;;;7.18;64.86;98424.59;5416415;26;20003;-63
2024/04/18 03:20:33;;;;;;;2.53;2.33;;;;;;;7.23;65.01;98427.09;5416217;26;20035;-63
2024/04/18 03:23:09;;;;;;;3.10;2.80;;;;;;;7.18;64.88;98424.59;5416569;26;20088;-63
2024/04/18 03:25:55;;;;;;;3.53;3.22;;;;;;;7.08;64.70;98430.41;5416184;26;20537;-64
2024/04/18 03:28:21;;;;;;;3.72;3.42;;;;;;;7.05;64.68;98424.81;5416502;26;20341;-64
2024/04/18 03:30:48;;;;;;;5.55;4.25;;;;;;;7.02;65.09;98434.41;5416056;26;19995;-64
2024/04/18 03:33:15;;;;;;;3.30;3.00;;;;;;;7.11;64.86;98434.38;5419922;26;20000;-65
2024/04/18 03:35:42;;;;;;;5.45;3.20;;;;;;;7.12;64.83;98438.66;5425222;26;20463;-65
2024/04/18 03:38:15;;;;;;;3.67;3.08;;;;;;;7.13;64.97;98437.56;5418059;26;20007;-65
2024/04/18 03:40:42;;;;;;;3.28;2.97;;;;;;;7.13;64.67;98441.06;5417324;26;20007;-65
2024/04/18 03:43:08;;;;;;;3.75;3.25;;;;;;;7.13;64.75;98445.69;5415239;26;20051;-64
2024/04/18 03:45:35;;;;;;;5.43;3.50;;;;;;;7.12;64.85;98455.72;5414628;26;20060;-64
2024/04/18 03:48:20;;;;;;;3.47;2.90;;;;;;;7.08;64.61;98454.81;5416158;26;20568;-64
2024/04/18 03:50:47;;;;;;;4.15;3.50;;;;;;;7.04;64.70;98459.25;5414191;26;20072;-64
2024/04/18 03:53:17;;;;;;;3.50;3.20;;;;;;;6.97;64.46;98459.00;5416163;26;20023;-64
2024/04/18 03:55:44;;;;;;;3.55;3.25;;;;;;;6.88;64.76;98456.34;5416108;26;19996;-64
2024/04/18 03:58:11;;;;;;;3.95;3.33;;;;;;;6.94;64.93;98465.06;5416028;26;20044;-64
2024/04/18 04:00:49;;;;;;;5.05;3.50;;;;;;;7.05;64.77;98465.47;5415790;26;20459;-64
2024/04/18 04:03:16;;;;;;;4.30;3.45;;;;;;;7.04;64.73;98474.75;5419338;26;20406;-64
2024/04/18 04:05:43;;;;;;;3.08;2.75;;;;;;;7.03;64.88;98473.16;5423840;26;20018;-65
2024/04/18 04:08:10;;;;;;;2.90;2.70;;;;;;;6.97;64.40;98470.63;5415830;26;20036;-64
2024/04/18 04:10:42;;;;;;;3.90;2.92;;;;;;;6.91;64.48;98471.94;5414689;26;20519;-64
2024/04/18 04:13:10;;;;;;;3.80;2.45;;;;;;;6.84;64.46;98481.69;5415174;26;20003;-64
2024/04/18 04:15:40;;;;;;;3.28;2.35;;;;;;;6.83;64.41;98471.94;5415731;26;20000;-64
2024/04/18 04:18:06;;;;;;;2.83;2.63;;;;;;;6.75;64.74;98486.34;5415470;26;20360;-64
2024/04/18 04:20:39;;;;;;;2.70;2.50;;;;;;;6.80;64.54;98484.25;5415759;26;20010;-64
2024/04/18 04:23:06;;;;;;;2.33;2.10;;;;;;;6.80;64.60;98489.66;5414763;26;20382;-64
2024/04/18 04:25:53;;;;;;;2.85;2.65;;;;;;;6.82;64.67;98498.25;5415481;26;20036;-65
2024/04/18 04:28:20;;;;;;;2.80;2.60;;;;;;;6.86;65.01;98495.69;5415665;26;20006;-65
2024/04/18 04:30:46;;;;;;;3.63;2.33;;;;;;;6.89;64.75;98500.50;5415187;26;20011;-64
2024/04/18 04:33:13;;;;;;;3.15;2.42;;;;;;;6.91;64.62;98509.09;5418540;26;20027;-64
2024/04/18 04:35:40;;;;;;;2.80;2.28;;;;;;;6.93;64.84;98517.69;5424243;26;20007;-64
2024/04/18 04:38:07;;;;;;;2.72;2.53;;;;;;;7.00;64.81;98520.69;5415242;26;20011;-64
2024/04/18 04:40:33;;;;;;;2.65;2.45;;;;;;;7.00;64.61;98515.25;5415024;26;20071;-64
2024/04/18 04:43:00;;;;;;;3.40;2.40;;;;;;;6.97;65.05;98519.41;5413802;26;19995;-65
2024/04/18 04:45:27;;;;;;;3.75;3.38;;;;;;;6.92;64.57;98524.22;5413989;26;20032;-64
2024/04/18 04:48:03;;;;;;;2.13;1.92;;;;;;;6.86;64.98;98523.59;5415126;26;20003;-64
2024/04/18 04:50:30;;;;;;;3.10;2.83;;;;;;;6.94;64.99;98532.84;5414934;26;20586;-64
2024/04/18 04:53:23;;;;;;;2.45;2.20;;;;;;;6.83;64.75;98535.09;5414760;26;20492;-64
2024/04/18 04:55:58;;;;;;;3.13;2.80;;;;;;;6.80;64.97;98534.94;5415019;26;20015;-64
2024/04/18 04:58:25;;;;;;;2.67;2.28;;;;;;;6.86;65.24;98547.19;5415095;26;19996;-64
2024/04/18 05:00:58;;;;;;;2.55;2.35;;;;;;;6.94;65.20;98540.97;5414890;26;20000;-63
2024/04/18 05:03:35;;;;;;;2.67;2.05;;;;;;;6.99;65.11;98546.19;5423214;26;20022;-63
2024/04/18 05:06:21;;;;;;;2.58;2.25;;;;;;;7.03;64.85;98555.28;5402124;26;20015;-63
2024/04/18 05:09:07;;;;;;;3.60;3.00;;;;;;;7.07;64.75;98552.72;5414906;26;20050;-63
2024/04/18 05:11:34;;;;;;;2.28;2.08;;;;;;;7.11;64.61;98562.59;5414835;26;20459;-63
2024/04/18 05:14:01;;;;;;;2.05;1.88;;;;;;;7.10;64.69;98558.31;5413266;26;20015;-63
2024/04/18 05:16:46;;;;;;;4.03;2.85;;;;;;;7.03;64.95;98566.13;5414858;26;20010;-63
2024/04/18 05:19:13;;;;;;;2.42;2.20;;;;;;;6.99;64.64;98565.19;5414455;26;19999;-63
2024/04/18 05:21:40;;;;;;;2.17;1.90;;;;;;;6.98;64.89;98567.09;5414536;26;20011;-63
2024/04/18 05:24:25;;;;;;;2.72;1.83;;;;;;;6.92;64.67;98573.03;5418021;26;20011;-63
2024/04/18 05:26:52;;;;;;;3.45;3.10;;;;;;;6.96;65.13;98576.66;5418320;26;20006;-63
2024/04/18 05:32:04;;;;;;;2.08;1.88;;;;;;;7.09;64.62;98580.31;5416271;26;20006;-63
2024/04/18 05:34:32;;;;;;;1.73;1.63;;;;;;;7.15;64.32;98577.09;5430082;26;20008;-63
2024/04/18 05:36:58;;;;;;;1.80;1.70;;;;;;;7.15;64.12;98589.84;5418140;26;19999;-63
2024/04/18 05:39:25;;;;;;;2.28;2.08;;;;;;;7.17;64.61;98593.03;5417972;26;20341;-63
2024/04/18 05:41:51;;;;;;;2.45;1.95;;;;;;;7.24;64.45;98599.53;5417996;26;20010;-64
2024/04/18 05:44:40;;;;;;;1.67;1.55;;;;;;;7.29;64.29;98598.59;5416465;26;20451;-63
2024/04/18 05:47:07;;;;;;;2.00;1.80;;;;;;;7.33;64.11;98604.16;5418227;26;20006;-63
2024/04/18 05:49:34;;;;;;;2.03;1.70;;;;;;;7.40;63.95;98609.88;5445738;26;19999;-63
2024/04/18 05:52:00;;;;;;;2.30;2.10;;;;;;;7.45;63.85;98615.94;5417608;26;20435;-63
2024/04/18 05:54:28;;;;;;;1.85;1.75;;;;;;;7.42;63.47;98613.03;5417682;26;20452;-63
2024/04/18 05:57:07;;;;;;;2.28;2.00;;;;;;;7.34;63.51;98619.31;5417901;26;20027;-63
2024/04/18 05:59:49;;;;;;;;;;;;;;;7.33;63.79;98620.44;5418726;26;20012;-63
2024/04/18 06:02:16;;;;;;;1.98;1.88;;;;;;;7.22;63.50;98625.41;5417992;26;19993;-63
2024/04/18 06:04:43;;;;;;;2.30;2.10;;;;;;;7.24;63.76;98631.28;5427976;26;20011;-64
2024/04/18 06:07:36;;;;;;;18.20;3.00;;;;;;;7.29;63.74;98637.34;5402777;26;20035;-63
2024/04/18 06:10:02;;;;;;;2.22;2.00;;;;;;;7.27;63.52;98645.03;5417357;26;20008;-64
2024/04/18 06:12:29;;;;;;;2.13;1.92;;;;;;;7.23;63.84;98644.06;5475384;26;20074;-63
2024/04/18 06:14:57;;;;;;;2.25;2.05;;;;;;;7.25;63.93;98651.88;5445973;26;20414;-63
2024/04/18 06:17:23;;;;;;;2.40;2.20;;;;;;;7.31;63.51;98647.88;5417593;26;19996;-63
2024/04/18 06:19:51;;;;;;;2.20;2.00;;;;;;;7.23;63.53;98663.03;5415631;26;20003;-64
2024/04/18 06:22:30;;;;;;;3.80;2.15;;;;;;;7.24;63.55;98661.13;5417323;26;20007;-64
2024/04/18 06:25:20;;;;;;;4.20;2.63;;;;;;;7.29;63.11;98669.13;5416914;26;20006;-62
2024/04/18 06:27:47;;;;;;;3.08;2.40;;;;;;;7.29;63.32;98669.13;5417549;26;20011;-63
2024/04/18 06:30:14;;;;;;;2.67;2.47;;;;;;;7.33;63.36;98678.19;5416894;26;20020;-63
2024/04/18 06:32:40;;;;;;;3.90;2.70;;;;;;;7.45;63.48;98680.25;5415834;26;20003;-63
2024/04/18 06:35:07;;;;;;;3.75;2.53;;;;;;;7.55;62.87;98677.16;5441555;26;19995;-63
2024/04/18 06:37:34;;;;;;;3.58;3.20;;;;;;;7.66;62.98;98673.00;5417544;26;20004;-63
2024/04/18 06:40:01;;;;;;;4.30;3.40;;;;;;;7.74;62.64;98677.56;5417064;26;19996;-63
2024/04/18 06:42:29;;;;;;;2.97;2.72;;;;;;;7.89;62.73;98687.91;5416890;26;19999;-64
2024/04/18 06:44:55;;;;;;;3.75;3.35;;;;;;;8.01;61.97;98687.22;5417263;26;20398;-63
2024/04/18 06:47:22;;;;;;;4.00;3.60;;;;;;;8.07;62.16;98688.63;5417227;26;20076;-63
2024/04/18 06:50:07;;;;;;;4.78;3.83;;;;;;;8.12;62.23;98698.50;5417041;26;20329;-63
2024/04/18 06:52:34;;;;;;;4.72;3.60;;;;;;;8.22;62.13;98695.41;5415305;26;20601;-63
2024/04/18 06:55:01;;;;;;;5.38;4.43;;;;;;;8.32;62.29;98697.72;5417193;26;20027;-63
2024/04/18 06:57:43;;;;;;;5.20;4.07;;;;;;;8.44;61.93;98699.78;5445585;26;20015;-63
2024/04/18 07:00:11;;;;;;;8.10;3.88;;;;;;;8.56;61.42;98709.94;5416818;26;19992;-63
2024/04/18 07:02:37;;;;;;;5.30;4.78;;;;;;;8.57;61.82;98708.81;5417020;26;19995;-63
2024/04/18 07:05:23;;;;;;;4.90;4.22;;;;;;;8.67;61.36;98713.84;5428693;26;20019;-63
2024/04/18 07:07:52;;;;;;;6.35;4.20;;;;;;;8.76;61.26;98725.47;5417966;26;20003;-63
2024/04/18 07:10:34;;;;;;;7.88;5.75;;;;;;;8.83;61.12;98728.44;5422168;26;20007;-63
2024/04/18 07:13:20;;;;;;;7.20;5.00;;;;;;;8.99;61.08;98731.38;5421171;26;20040;-63
2024/04/18 07:16:02;;;;;;;8.80;5.22;;;;;;;9.04;60.35;98737.41;5422965;26;20013;-63
2024/04/18 07:18:48;;;;;;;7.93;4.90;;;;;;;9.02;60.61;98741.59;5425943;26;20028;-64
2024/04/18 07:21:15;;;;;;;5.85;4.80;;;;;;;9.05;60.44;98747.16;5431071;26;19999;-63
2024/04/18 07:23:42;;;;;;;9.13;6.32;;;;;;;8.96;60.92;98754.59;5433539;26;19999;-63
2024/04/18 07:26:08;;;;;;;9.85;6.93;;;;;;;8.91;59.25;98754.75;5431185;26;20003;-63
2024/04/18 07:28:35;;;;;;;7.70;6.40;;;;;;;8.76;59.65;98753.47;5432664;26;20003;-64
2024/04/18 07:31:02;;;;;;;9.35;6.25;;;;;;;8.92;60.82;98758.28;5432308;26;19995;-64
2024/04/18 07:33:29;;;;;;;11.82;8.18;;;;;;;9.14;60.68;98757.19;5429094;26;20000;-63
2024/04/18 07:35:59;;;;;;;8.93;6.68;;;;;;;9.23;58.90;98755.97;5420673;26;20439;-64
2024/04/18 07:38:26;;;;;;;7.85;6.60;;;;;;;9.21;58.76;98762.88;5420898;26;20464;-64
2024/04/18 07:40:53;;;;;;;8.65;6.90;;;;;;;9.23;59.65;98764.13;5418911;26;20456;-64
2024/04/18 07:43:20;;;;;;;8.32;6.72;;;;;;;9.30;59.44;98769.84;5420316;26;20003;-64
2024/04/18 07:45:47;;;;;;;11.38;7.00;;;;;;;9.37;58.30;98774.72;5421324;26;20006;-64
2024/04/18 07:48:14;;;;;;;7.85;6.50;;;;;;;9.30;58.05;98769.84;5423527;26;20072;-64
2024/04/18 07:50:41;;;;;;;11.82;7.10;;;;;;;9.28;58.77;98774.00;5414542;26;20072;-64
2024/04/18 07:53:08;;;;;;;7.85;6.90;;;;;;;9.37;58.33;98774.72;5416684;26;20015;-63
2024/04/18 07:55:36;;;;;;;8.38;7.18;;;;;;;9.49;57.96;98780.25;5414462;26;20011;-64
2024/04/18 07:58:03;;;;;;;8.02;6.57;;;;;;;9.51;57.90;98783.41;5416455;26;20010;-63
2024/04/18 08:00:33;;;;;;;8.63;6.50;;;;;;;9.65;58.56;98781.19;5415820;26;19996;-63
2024/04/18 08:03:02;;;;;;;9.63;6.93;;;;;;;9.85;57.54;98784.19;5416241;26;19999;-63
2024/04/18 08:05:31;;;;;;;9.02;6.90;;;;;;;9.83;56.96;98789.19;5416003;26;20003;-63
2024/04/18 08:08:03;;;;;;;10.73;7.43;;;;;;;10.03;56.64;98785.59;5416091;26;20447;-63
2024/04/18 08:10:34;;;;;;;8.77;6.10;;;;;;;10.26;56.97;98781.34;5413965;26;20007;-63
2024/04/18 08:13:21;;;;;;;10.73;6.60;;;;;;;10.45;57.31;98790.91;5415921;26;20027;-63
2024/04/18 08:15:55;;;;;;;7.43;5.95;;;;;;;10.72;57.28;98790.19;5416062;26;20370;-63
2024/04/18 08:18:27;;;;;;;7.55;6.25;;;;;;;10.85;56.24;98793.72;5415681;26;20077;-62
2024/04/18 08:20:56;;;;;;;6.50;5.82;;;;;;;10.80;55.94;98800.22;5415502;26;20005;-62
2024/04/18 08:23:23;;;;;;;8.32;6.35;;;;;;;10.50;56.19;98807.03;5415690;26;20009;-62
2024/04/18 08:25:50;;;;;;;7.82;6.57;;;;;;;10.24;56.80;98805.44;5415396;26;20080;-62
2024/04/18 08:28:16;;;;;;;7.78;6.20;;;;;;;10.17;57.41;98816.03;5414241;26;20452;-63
2024/04/18 08:30:44;;;;;;;7.47;6.60;;;;;;;10.21;56.97;98816.19;5415283;26;20072;-63
2024/04/18 08:33:11;;;;;;;9.63;6.40;;;;;;;10.06;56.64;98823.06;5417556;26;20045;-62
2024/04/18 08:35:38;;;;;;;8.82;6.95;;;;;;;9.96;56.59;98829.75;5424488;26;20462;-62
2024/04/18 08:38:08;;;;;;;8.82;7.07;;;;;;;9.92;56.41;98825.31;5416756;26;20011;-62
2024/04/18 08:40:36;;;;;;;8.07;6.63;;;;;;;9.99;56.68;98829.06;5413446;26;19999;-62
2024/04/18 08:43:03;;;;;;;10.98;7.03;;;;;;;9.97;56.93;98828.59;5414191;26;20015;-62
2024/04/18 08:45:34;;;;;;;8.88;7.22;;;;;;;9.92;56.73;98836.19;5415794;26;20392;-62
2024/04/18 08:48:01;;;;;;;8.68;6.97;;;;;;;9.84;57.42;98842.50;5415347;26;20076;-63
2024/04/18 08:50:31;;;;;;;9.10;7.15;;;;;;;9.97;56.61;98833.25;5413236;26;19992;-63
2024/04/18 08:52:58;;;;;;;7.95;6.70;;;;;;;10.21;56.33;98827.88;5413647;26;20000;-63
2024/04/18 08:55:25;;;;;;;8.75;7.35;;;;;;;10.55;55.98;98831.34;5415094;26;20010;-62
2024/04/18 08:58:10;;;;;;;10.32;6.68;;;;;;;11.03;55.05;98832.47;5444679;26;20000;-62
2024/04/18 09:00:44;;;;;;;7.82;6.57;;;;;;;11.33;53.56;98836.47;5418673;26;20459;-65
2024/04/18 09:03:11;;;;;;;7.20;6.20;;;;;;;11.60;52.56;98834.13;5420768;26;19996;-65
2024/04/18 09:05:38;;;;;;;8.18;6.28;;;;;;;11.71;51.55;98835.22;5427788;26;20004;-64
2024/04/18 09:08:09;;;;;;;8.27;7.18;;;;;;;11.65;52.22;98845.59;5447067;26;20004;-64
2024/04/18 09:10:36;;;;;;;8.93;6.45;;;;;;;12.00;52.01;98848.56;5416588;26;20460;-64
2024/04/18 09:13:03;;;;;;;8.32;6.78;;;;;;;12.08;51.10;98846.81;5416681;26;20340;-64
2024/04/18 09:15:33;;;;;;;7.55;5.90;;;;;;;11.96;51.02;98846.88;5418273;26;20471;-65
2024/04/18 09:18:04;;;;;;;6.90;5.68;;;;;;;11.94;51.08;98847.22;5416692;26;19999;-64
2024/04/18 09:20:33;;;;;;;6.22;5.15;;;;;;;11.93;48.99;98853.84;5446198;26;20456;-65
2024/04/18 09:23:00;;;;;;;6.63;4.88;;;;;;;11.66;48.60;98858.13;5416726;26;20011;-65
2024/04/18 09:25:27;;;;;;;6.20;5.30;;;;;;;11.68;49.61;98857.78;5418530;26;19996;-65
2024/04/18 09:27:54;;;;;;;7.22;5.03;;;;;;;11.86;48.69;98861.81;5416850;26;20014;-65
2024/04/18 09:30:20;;;;;;;6.80;5.18;;;;;;;11.86;48.99;98869.22;5418663;26;20000;-64
2024/04/18 09:32:48;;;;;;;5.60;4.97;;;;;;;12.05;50.39;98863.91;5418560;26;20004;-64
2024/04/18 09:35:17;;;;;;;6.78;5.45;;;;;;;12.17;48.61;98866.59;5428239;26;20365;-65
2024/04/18 09:37:44;;;;;;;6.68;5.93;;;;;;;12.06;48.48;98876.44;5418205;26;20408;-64
2024/04/18 09:40:25;;;;;;;7.95;5.97;;;;;;;11.79;48.17;98880.75;5417418;26;19992;-64
2024/04/18 09:43:00;;;;;;;9.25;5.65;;;;;;;11.55;49.15;98880.81;5416303;26;20000;-64
2024/04/18 09:45:37;;;;;;;10.13;7.85;;;;;;;11.66;50.26;98882.69;5418143;26;20007;-65
2024/04/18 09:48:05;;;;;;;7.63;6.32;;;;;;;11.87;49.77;98890.75;5418091;26;20452;-65
2024/04/18 09:50:32;;;;;;;7.75;6.35;;;;;;;11.94;49.50;98892.91;5416302;26;19995;-65
2024/04/18 09:53:00;;;;;;;10.90;7.95;;;;;;;11.97;49.02;98897.66;5416502;26;20007;-65
2024/04/18 09:55:26;;;;;;;8.23;6.35;;;;;;;11.99;47.68;98893.44;5418204;26;20351;-65
2024/04/18 09:57:56;;;;;;;8.93;6.00;;;;;;;11.93;47.82;98902.25;5416306;26;20011;-64
2024/04/18 10:00:23;;;;;;;10.15;7.00;;;;;;;11.89;49.22;98906.78;5416700;26;19992;-64
2024/04/18 10:02:53;;;;;;;8.98;7.38;;;;;;;11.96;48.86;98904.28;5417785;26;20474;-64
2024/04/18 10:05:21;;;;;;;8.20;6.90;;;;;;;11.91;48.31;98899.06;5445839;26;20544;-64
2024/04/18 10:07:49;;;;;;;10.52;6.93;;;;;;;11.87;49.34;98896.22;5418062;26;20003;-66
2024/04/18 10:10:18;;;;;;;9.30;7.40;;;;;;;12.03;49.26;98899.78;5414582;26;20003;-64
2024/04/18 10:12:46;;;;;;;9.98;7.15;;;;;;;12.05;48.30;98902.16;5418274;26;20073;-63
2024/04/18 10:15:18;;;;;;;9.75;6.60;;;;;;;12.02;48.98;98906.41;5418345;26;20440;-63
2024/04/18 10:17:45;;;;;;;8.23;6.65;;;;;;;11.99;48.16;98912.56;5416433;26;19996;-63
2024/04/18 10:20:15;;;;;;;10.02;7.35;;;;;;;12.01;47.85;98904.81;5445654;26;20003;-63
2024/04/18 10:22:42;;;;;;;9.25;7.00;;;;;;;12.12;47.19;98905.91;5417735;26;20531;-63
2024/04/18 10:25:18;;;;;;;8.68;6.90;;;;;;;12.32;46.53;98914.25;5417172;26;20004;-62
2024/04/18 10:27:45;;;;;;;9.57;7.72;;;;;;;12.38;46.15;98912.84;5417575;26;20000;-63
2024/04/18 10:30:18;;;;;;;8.60;6.65;;;;;;;12.31;46.17;98912.66;5417112;26;20479;-64
2024/04/18 10:32:47;;;;;;;8.48;6.78;;;;;;;12.37;46.02;98920.25;5415290;26;19995;-63
2024/04/18 10:35:16;;;;;;;8.65;7.22;;;;;;;12.33;46.62;98918.56;5417048;26;19999;-63
2024/04/18 10:37:50;;;;;;;9.13;6.43;;;;;;;12.21;45.77;98915.88;5415596;26;20444;-64
2024/04/18 10:40:17;;;;;;;9.10;7.20;;;;;;;12.05;46.94;98913.09;5416566;26;20387;-63
2024/04/18 10:42:44;;;;;;;9.50;6.70;;;;;;;11.97;46.87;98923.06;5417139;26;19999;-64
2024/04/18 10:45:11;;;;;;;8.60;6.75;;;;;;;11.90;46.63;98928.31;5415040;26;20520;-64
2024/04/18 10:47:39;;;;;;;8.70;6.72;;;;;;;11.90;48.25;98928.31;5415261;26;20448;-63
2024/04/18 10:50:07;;;;;;;7.30;5.78;;;;;;;11.87;47.61;98930.94;5416668;26;20003;-63
2024/04/18 10:52:33;;;;;;;8.25;5.95;;;;;;;11.82;48.28;98937.44;5416589;26;20340;-63
2024/04/18 10:55:00;;;;;;;7.18;6.22;;;;;;;11.81;47.49;98944.06;5416817;26;20000;-63
2024/04/18 10:57:27;;;;;;;8.15;6.68;;;;;;;11.97;47.68;98933.97;5416792;26;20000;-63
2024/04/18 10:59:53;;;;;;;7.53;6.35;;;;;;;12.09;47.54;98939.41;5416733;26;20003;-63
2024/04/18 11:02:20;;;;;;;13.20;8.73;;;;;;;12.22;48.24;98940.13;5416741;26;20000;-63
2024/04/18 11:04:47;;;;;;;11.18;7.18;;;;;;;12.50;48.33;98937.41;5420883;26;20444;-63
2024/04/18 11:07:14;;;;;;;8.32;5.95;;;;;;;12.75;48.06;98932.56;5414503;26;20018;-63
2024/04/18 11:09:43;;;;;;;9.88;7.03;;;;;;;12.98;47.05;98938.19;5414678;26;19999;-63
2024/04/18 11:12:11;;;;;;;8.20;6.35;;;;;;;13.00;47.58;98941.38;5414184;26;20328;-64
2024/04/18 11:14:38;;;;;;;8.88;6.07;;;;;;;13.05;47.14;98943.88;5416718;26;20011;-64
2024/04/18 11:17:06;;;;;;;7.63;6.03;;;;;;;12.91;46.46;98943.50;5416839;26;20011;-64
2024/04/18 11:19:33;;;;;;;11.30;7.15;;;;;;;12.65;46.63;98944.84;5414579;26;20006;-64
2024/04/18 11:22:01;;;;;;;8.23;6.82;;;;;;;12.39;48.32;98947.25;5415918;26;19999;-64
2024/04/18 11:24:28;;;;;;;10.73;7.63;;;;;;;12.12;49.03;98965.25;5416416;26;19991;-65
2024/04/18 11:26:56;;;;;;;10.43;6.93;;;;;;;11.82;50.43;98967.50;5416379;26;20014;-64
2024/04/18 11:29:26;;;;;;;8.48;6.43;;;;;;;11.41;51.55;98965.84;5414239;26;19995;-66
2024/04/18 11:31:52;;;;;;;8.23;5.75;;;;;;;11.44;51.93;98963.22;5415954;26;20475;-65
2024/04/18 11:34:19;;;;;;;9.32;6.25;;;;;;;11.63;51.27;98959.09;5427994;26;20000;-64
2024/04/18 11:36:46;;;;;;;8.23;6.57;;;;;;;11.82;52.59;98953.84;5416062;26;20351;-64
2024/04/18 11:39:13;;;;;;;12.00;6.70;;;;;;;12.01;51.79;98954.00;5415740;26;20004;-64
2024/04/18 11:41:40;;;;;;;9.82;6.40;;;;;;;12.21;51.36;98962.38;5414045;26;20023;-65
2024/04/18 11:44:06;;;;;;;13.00;6.78;;;;;;;12.34;50.17;98964.69;5444396;26;20076;-63
2024/04/18 11:46:33;;;;;;;10.02;6.47;;;;;;;12.55;50.74;98960.97;5416028;26;20028;-64
2024/04/18 11:49:00;;;;;;;6.90;5.57;;;;;;;12.68;50.91;98960.53;5415791;26;20068;-64
2024/04/18 11:51:27;;;;;;;5.68;5.10;;;;;;;12.75;50.69;98951.72;5415632;26;20011;-65
2024/04/18 11:53:54;;;;;;;6.95;5.07;;;;;;;12.69;49.87;98955.88;5415742;26;20072;-64
2024/04/18 11:56:33;;;;;;;5.30;4.80;;;;;;;12.74;48.47;98961.88;5416079;26;20468;-64
2024/04/18 11:59:02;;;;;;;5.47;4.65;;;;;;;12.91;49.25;98966.22;5415804;26;20003;-65
2024/04/18 12:01:32;;;;;;;7.82;5.25;;;;;;;13.14;48.85;98958.16;5414041;26;20073;-64